sensor_id;sensor_type;location;lat;lon;timestamp;pressure;altitude;pressure_sealevel;temperature;humidity
11347;BME280;5728;42.722;23.258;2022-12-18T00:00:43;95507.50;;;5.42;100.00
11347;BME280;5728;42.722;23.258;2022-12-18T00:03:10;95503.88;;;5.31;100.00
11347;BME280;5728;42.722;23.258;2022-12-18T00:05:46;95520.78;;;5.18;100.00
11347;BME280;5728;42.722;23.258;2022-12-18T00:08:13;95536.06;;;5.08;100.00
11347;BME280;5728;42.722;23.258;2022-12-18T00:10:39;95532.88;;;5.23;100.00
11347;BME280;5728;42.722;23.258;2022-12-18T00:13:06;95529.81;;;5.43;100.00
11347;BME280;5728;42.722;23.258;2022-12-18T00:15:33;95530.50;;;5.35;100.00
11347;BME280;5728;42.722;23.258;2022-12-18T00:18:00;95521.53;;;5.10;100.00
11347;BME280;5728;42.722;23.258;2022-12-18T00:20:26;95538.03;;;5.24;100.00
11347;BME280;5728;42.722;23.258;2022-12-18T00:22:55;95559.94;;;5.01;100.00
11347;BME280;5728;42.722;23.258;2022-12-18T00:25:22;95546.44;;;5.14;100.00
11347;BME280;5728;42.722;23.258;2022-12-18T00:27:49;95551.56;;;5.14;100.00
11347;BME280;5728;42.722;23.258;2022-12-18T00:30:16;95515.09;;;4.85;100.00
11347;BME280;5728;42.722;23.258;2022-12-18T00:32:43;95531.59;;;4.99;100.00
11347;BME280;5728;42.722;23.258;2022-12-18T00:35:09;95559.28;;;5.14;100.00
11347;BME280;5728;42.722;23.258;2022-12-18T00:37:36;95575.16;;;4.92;100.00
11347;BME280;5728;42.722;23.258;2022-12-18T00:40:06;95554.78;;;5.01;100.00
11347;BME280;5728;42.722;23.258;2022-12-18T00:42:32;95563.03;;;4.85;100.00
11347;BME280;5728;42.722;23.258;2022-12-18T00:45:17;95552.88;;;4.91;100.00
11347;BME280;5728;42.722;23.258;2022-12-18T00:47:43;95557.16;;;4.92;100.00
11347;BME280;5728;42.722;23.258;2022-12-18T00:50:10;95582.63;;;4.80;100.00
11347;BME280;5728;42.722;23.258;2022-12-18T00:52:37;95563.19;;;4.94;100.00
11347;BME280;5728;42.722;23.258;2022-12-18T00:55:10;95566.28;;;4.75;100.00
11347;BME280;5728;42.722;23.258;2022-12-18T00:57:37;95576.63;;;4.79;100.00
11347;BME280;5728;42.722;23.258;2022-12-18T01:00:05;95575.81;;;4.80;100.00
11347;BME280;5728;42.722;23.258;2022-12-18T01:02:32;95573.84;;;4.69;100.00
11347;BME280;5728;42.722;23.258;2022-12-18T01:04:59;95585.72;;;4.64;100.00
11347;BME280;5728;42.722;23.258;2022-12-18T01:07:26;95582.31;;;4.63;100.00
11347;BME280;5728;42.722;23.258;2022-12-18T01:09:53;95582.91;;;4.51;100.00
11347;BME280;5728;42.722;23.258;2022-12-18T01:12:21;95568.84;;;4.33;100.00
11347;BME280;5728;42.722;23.258;2022-12-18T01:14:47;95590.03;;;4.63;100.00
11347;BME280;5728;42.722;23.258;2022-12-18T01:17:14;95587.97;;;4.48;100.00
11347;BME280;5728;42.722;23.258;2022-12-18T01:19:41;95584.78;;;4.59;100.00
11347;BME280;5728;42.722;23.258;2022-12-18T01:22:08;95595.03;;;4.59;100.00
11347;BME280;5728;42.722;23.258;2022-12-18T01:24:34;95585.63;;;4.58;100.00
11347;BME280;5728;42.722;23.258;2022-12-18T01:27:01;95595.59;;;4.42;100.00
11347;BME280;5728;42.722;23.258;2022-12-18T01:29:29;95565.28;;;4.26;100.00
11347;BME280;5728;42.722;23.258;2022-12-18T01:31:56;95589.66;;;4.45;100.00
11347;BME280;5728;42.722;23.258;2022-12-18T01:34:23;95614.69;;;4.57;100.00
11347;BME280;5728;42.722;23.258;2022-12-18T01:36:50;95607.53;;;4.40;100.00
11347;BME280;5728;42.722;23.258;2022-12-18T01:39:17;95618.94;;;4.55;100.00
11347;BME280;5728;42.722;23.258;2022-12-18T01:41:44;95613.63;;;4.45;100.00
11347;BME280;5728;42.722;23.258;2022-12-18T01:44:55;95617.19;;;4.53;100.00
11347;BME280;5728;42.722;23.258;2022-12-18T01:47:25;95614.03;;;4.26;100.00
11347;BME280;5728;42.722;23.258;2022-12-18T01:49:54;95613.31;;;4.30;100.00
11347;BME280;5728;42.722;23.258;2022-12-18T01:52:22;95622.63;;;4.27;100.00
11347;BME280;5728;42.722;23.258;2022-12-18T01:54:50;95616.63;;;4.26;100.00
11347;BME280;5728;42.722;23.258;2022-12-18T01:57:18;95621.81;;;4.29;100.00
11347;BME280;5728;42.722;23.258;2022-12-18T01:59:48;95630.50;;;4.36;100.00
11347;BME280;5728;42.722;23.258;2022-12-18T02:02:17;95628.75;;;4.33;100.00
11347;BME280;5728;42.722;23.258;2022-12-18T02:04:45;95617.78;;;4.40;100.00
11347;BME280;5728;42.722;23.258;2022-12-18T02:07:21;95647.63;;;4.35;100.00
11347;BME280;5728;42.722;23.258;2022-12-18T02:09:56;95626.94;;;4.29;100.00
11347;BME280;5728;42.722;23.258;2022-12-18T02:12:28;95604.22;;;4.07;100.00
11347;BME280;5728;42.722;23.258;2022-12-18T02:15:00;95632.09;;;4.29;100.00
11347;BME280;5728;42.722;23.258;2022-12-18T02:17:36;95604.47;;;4.19;100.00
11347;BME280;5728;42.722;23.258;2022-12-18T02:20:11;95645.19;;;4.04;100.00
11347;BME280;5728;42.722;23.258;2022-12-18T02:22:47;95630.31;;;4.25;100.00
11347;BME280;5728;42.722;23.258;2022-12-18T02:25:28;95627.50;;;4.15;100.00
11347;BME280;5728;42.722;23.258;2022-12-18T02:27:59;95628.38;;;4.15;100.00
11347;BME280;5728;42.722;23.258;2022-12-18T02:30:29;95646.16;;;4.08;100.00
11347;BME280;5728;42.722;23.258;2022-12-18T02:32:59;95670.78;;;4.01;100.00
11347;BME280;5728;42.722;23.258;2022-12-18T02:35:29;95633.16;;;4.00;100.00
11347;BME280;5728;42.722;23.258;2022-12-18T02:37:57;95649.97;;;4.25;100.00
11347;BME280;5728;42.722;23.258;2022-12-18T02:40:26;95667.94;;;4.26;100.00
11347;BME280;5728;42.722;23.258;2022-12-18T02:42:53;95650.72;;;4.21;100.00
11347;BME280;5728;42.722;23.258;2022-12-18T02:45:21;95655.97;;;4.25;100.00
11347;BME280;5728;42.722;23.258;2022-12-18T02:47:49;95657.25;;;4.08;100.00
11347;BME280;5728;42.722;23.258;2022-12-18T02:50:19;95682.19;;;4.12;100.00
11347;BME280;5728;42.722;23.258;2022-12-18T02:52:56;95660.69;;;4.09;100.00
11347;BME280;5728;42.722;23.258;2022-12-18T02:55:36;95662.19;;;3.99;100.00
11347;BME280;5728;42.722;23.258;2022-12-18T02:58:14;95661.06;;;3.88;100.00
11347;BME280;5728;42.722;23.258;2022-12-18T03:00:48;95663.94;;;4.00;100.00
11347;BME280;5728;42.722;23.258;2022-12-18T03:03:19;95676.00;;;4.04;100.00
11347;BME280;5728;42.722;23.258;2022-12-18T03:05:54;95660.53;;;4.01;100.00
11347;BME280;5728;42.722;23.258;2022-12-18T03:08:25;95662.09;;;3.95;100.00
11347;BME280;5728;42.722;23.258;2022-12-18T03:10:57;95659.47;;;3.93;100.00
11347;BME280;5728;42.722;23.258;2022-12-18T03:13:28;95674.03;;;3.94;100.00
11347;BME280;5728;42.722;23.258;2022-12-18T03:15:59;95660.41;;;3.95;100.00
11347;BME280;5728;42.722;23.258;2022-12-18T03:18:33;95670.84;;;4.04;100.00
11347;BME280;5728;42.722;23.258;2022-12-18T03:21:05;95668.19;;;4.00;100.00
11347;BME280;5728;42.722;23.258;2022-12-18T03:23:36;95710.78;;;3.93;100.00
11347;BME280;5728;42.722;23.258;2022-12-18T03:26:07;95675.78;;;3.95;100.00
11347;BME280;5728;42.722;23.258;2022-12-18T03:28:38;95683.72;;;4.06;100.00
11347;BME280;5728;42.722;23.258;2022-12-18T03:31:10;95708.44;;;4.02;100.00
11347;BME280;5728;42.722;23.258;2022-12-18T03:33:40;95698.94;;;3.98;100.00
11347;BME280;5728;42.722;23.258;2022-12-18T03:36:08;95683.13;;;3.80;100.00
11347;BME280;5728;42.722;23.258;2022-12-18T03:38:35;95700.31;;;3.85;100.00
11347;BME280;5728;42.722;23.258;2022-12-18T03:41:07;95704.22;;;4.04;100.00
11347;BME280;5728;42.722;23.258;2022-12-18T03:43:44;95702.47;;;4.03;100.00
11347;BME280;5728;42.722;23.258;2022-12-18T03:46:24;95708.22;;;3.93;100.00
11347;BME280;5728;42.722;23.258;2022-12-18T03:48:59;95701.19;;;3.86;100.00
11347;BME280;5728;42.722;23.258;2022-12-18T03:51:31;95724.53;;;3.95;100.00
11347;BME280;5728;42.722;23.258;2022-12-18T03:54:03;95720.97;;;3.90;100.00
11347;BME280;5728;42.722;23.258;2022-12-18T03:56:33;95721.31;;;3.69;100.00
11347;BME280;5728;42.722;23.258;2022-12-18T03:59:03;95702.91;;;3.53;100.00
11347;BME280;5728;42.722;23.258;2022-12-18T04:01:37;95722.88;;;3.64;100.00
11347;BME280;5728;42.722;23.258;2022-12-18T04:04:06;95723.38;;;3.84;100.00
11347;BME280;5728;42.722;23.258;2022-12-18T04:06:35;95713.31;;;3.57;100.00
11347;BME280;5728;42.722;23.258;2022-12-18T04:09:04;95728.81;;;3.62;100.00
11347;BME280;5728;42.722;23.258;2022-12-18T04:11:31;95720.25;;;3.63;100.00
11347;BME280;5728;42.722;23.258;2022-12-18T04:13:58;95708.00;;;3.51;100.00
11347;BME280;5728;42.722;23.258;2022-12-18T04:16:25;95726.91;;;3.55;100.00
11347;BME280;5728;42.722;23.258;2022-12-18T04:18:54;95733.72;;;3.54;100.00
11347;BME280;5728;42.722;23.258;2022-12-18T04:21:20;95728.72;;;3.59;100.00
11347;BME280;5728;42.722;23.258;2022-12-18T04:23:48;95765.69;;;3.67;100.00
11347;BME280;5728;42.722;23.258;2022-12-18T04:26:14;95758.81;;;3.66;100.00
11347;BME280;5728;42.722;23.258;2022-12-18T04:28:41;95771.06;;;3.76;100.00
11347;BME280;5728;42.722;23.258;2022-12-18T04:31:08;95749.41;;;3.34;100.00
11347;BME280;5728;42.722;23.258;2022-12-18T04:33:35;95771.06;;;3.45;100.00
11347;BME280;5728;42.722;23.258;2022-12-18T04:36:04;95775.03;;;3.34;100.00
11347;BME280;5728;42.722;23.258;2022-12-18T04:38:31;95775.44;;;3.49;100.00
11347;BME280;5728;42.722;23.258;2022-12-18T04:40:57;95778.81;;;3.48;100.00
11347;BME280;5728;42.722;23.258;2022-12-18T04:43:24;95793.63;;;3.58;100.00
11347;BME280;5728;42.722;23.258;2022-12-18T04:45:51;95793.28;;;3.44;100.00
11347;BME280;5728;42.722;23.258;2022-12-18T04:48:17;95794.28;;;3.51;100.00
11347;BME280;5728;42.722;23.258;2022-12-18T04:50:46;95794.28;;;3.51;100.00
11347;BME280;5728;42.722;23.258;2022-12-18T04:53:14;95802.97;;;3.56;100.00
11347;BME280;5728;42.722;23.258;2022-12-18T04:55:41;95765.16;;;3.17;100.00
11347;BME280;5728;42.722;23.258;2022-12-18T04:58:08;95803.41;;;3.40;100.00
11347;BME280;5728;42.722;23.258;2022-12-18T05:00:35;95805.97;;;3.40;100.00
11347;BME280;5728;42.722;23.258;2022-12-18T05:03:02;95802.22;;;3.29;100.00
11347;BME280;5728;42.722;23.258;2022-12-18T05:05:28;95797.00;;;3.26;100.00
11347;BME280;5728;42.722;23.258;2022-12-18T05:07:55;95837.53;;;3.39;100.00
11347;BME280;5728;42.722;23.258;2022-12-18T05:10:23;95829.25;;;3.47;100.00
11347;BME280;5728;42.722;23.258;2022-12-18T05:12:50;95824.47;;;3.30;100.00
11347;BME280;5728;42.722;23.258;2022-12-18T05:15:27;95834.63;;;3.27;100.00
11347;BME280;5728;42.722;23.258;2022-12-18T05:17:54;95836.53;;;3.04;100.00
11347;BME280;5728;42.722;23.258;2022-12-18T05:20:21;95832.78;;;3.22;100.00
11347;BME280;5728;42.722;23.258;2022-12-18T05:22:47;95841.03;;;3.12;100.00
11347;BME280;5728;42.722;23.258;2022-12-18T05:25:14;95848.94;;;3.20;100.00
11347;BME280;5728;42.722;23.258;2022-12-18T05:27:43;95841.19;;;3.17;100.00
11347;BME280;5728;42.722;23.258;2022-12-18T05:30:11;95850.09;;;3.30;100.00
11347;BME280;5728;42.722;23.258;2022-12-18T05:32:38;95859.97;;;3.17;98.71
11347;BME280;5728;42.722;23.258;2022-12-18T05:35:06;95861.81;;;3.21;99.12
11347;BME280;5728;42.722;23.258;2022-12-18T05:37:34;95856.69;;;3.21;98.92
11347;BME280;5728;42.722;23.258;2022-12-18T05:40:01;95863.50;;;3.21;99.93
11347;BME280;5728;42.722;23.258;2022-12-18T05:42:28;95858.50;;;3.26;98.85
11347;BME280;5728;42.722;23.258;2022-12-18T05:44:56;95877.97;;;3.19;99.14
11347;BME280;5728;42.722;23.258;2022-12-18T05:47:23;95865.88;;;2.87;99.14
11347;BME280;5728;42.722;23.258;2022-12-18T05:49:50;95839.09;;;2.77;99.72
11347;BME280;5728;42.722;23.258;2022-12-18T05:52:17;95873.84;;;2.96;99.96
11347;BME280;5728;42.722;23.258;2022-12-18T05:54:43;95883.34;;;3.00;99.71
11347;BME280;5728;42.722;23.258;2022-12-18T05:57:10;95892.09;;;3.06;100.00
11347;BME280;5728;42.722;23.258;2022-12-18T05:59:37;95883.56;;;3.07;100.00
11347;BME280;5728;42.722;23.258;2022-12-18T06:02:05;95888.03;;;3.13;100.00
11347;BME280;5728;42.722;23.258;2022-12-18T06:04:32;95901.25;;;3.27;99.13
11347;BME280;5728;42.722;23.258;2022-12-18T06:06:59;95909.53;;;3.46;100.00
11347;BME280;5728;42.722;23.258;2022-12-18T06:09:25;95908.13;;;3.28;99.10
11347;BME280;5728;42.722;23.258;2022-12-18T06:11:52;95897.84;;;3.28;99.17
11347;BME280;5728;42.722;23.258;2022-12-18T06:14:19;95907.56;;;3.09;99.36
11347;BME280;5728;42.722;23.258;2022-12-18T06:16:46;95907.94;;;3.21;100.00
11347;BME280;5728;42.722;23.258;2022-12-18T06:19:15;95899.25;;;3.16;98.93
11347;BME280;5728;42.722;23.258;2022-12-18T06:21:42;95910.75;;;3.29;99.36
11347;BME280;5728;42.722;23.258;2022-12-18T06:24:09;95916.66;;;3.27;99.54
11347;BME280;5728;42.722;23.258;2022-12-18T06:26:37;95894.00;;;3.12;98.69
11347;BME280;5728;42.722;23.258;2022-12-18T06:29:06;95912.16;;;3.19;98.75
11347;BME280;5728;42.722;23.258;2022-12-18T06:31:33;95919.78;;;3.45;98.70
11347;BME280;5728;42.722;23.258;2022-12-18T06:34:02;95923.78;;;3.37;98.29
11347;BME280;5728;42.722;23.258;2022-12-18T06:36:30;95916.44;;;3.20;97.29
11347;BME280;5728;42.722;23.258;2022-12-18T06:38:57;95921.88;;;3.30;98.61
11347;BME280;5728;42.722;23.258;2022-12-18T06:41:24;95932.97;;;3.30;97.19
11347;BME280;5728;42.722;23.258;2022-12-18T06:43:51;95925.66;;;3.14;95.82
11347;BME280;5728;42.722;23.258;2022-12-18T06:46:18;95941.78;;;3.11;95.94
11347;BME280;5728;42.722;23.258;2022-12-18T06:48:47;95945.38;;;3.16;95.57
11347;BME280;5728;42.722;23.258;2022-12-18T06:51:16;95947.72;;;3.10;94.62
11347;BME280;5728;42.722;23.258;2022-12-18T06:53:44;95945.91;;;3.06;94.86
11347;BME280;5728;42.722;23.258;2022-12-18T06:56:11;95955.25;;;3.04;94.23
11347;BME280;5728;42.722;23.258;2022-12-18T06:58:39;95945.06;;;3.07;95.00
11347;BME280;5728;42.722;23.258;2022-12-18T07:01:08;95950.41;;;3.13;95.63
11347;BME280;5728;42.722;23.258;2022-12-18T07:03:35;95956.84;;;3.02;95.50
11347;BME280;5728;42.722;23.258;2022-12-18T07:06:02;95963.53;;;2.97;96.84
11347;BME280;5728;42.722;23.258;2022-12-18T07:08:29;95951.25;;;2.87;97.88
11347;BME280;5728;42.722;23.258;2022-12-18T07:10:58;95953.88;;;2.89;97.87
11347;BME280;5728;42.722;23.258;2022-12-18T07:13:24;95967.44;;;2.86;97.89
11347;BME280;5728;42.722;23.258;2022-12-18T07:15:52;95972.94;;;2.97;98.74
11347;BME280;5728;42.722;23.258;2022-12-18T07:18:18;95970.78;;;2.84;97.69
11347;BME280;5728;42.722;23.258;2022-12-18T07:20:45;95974.53;;;2.95;98.91
11347;BME280;5728;42.722;23.258;2022-12-18T07:23:12;95977.19;;;2.71;98.70
11347;BME280;5728;42.722;23.258;2022-12-18T07:25:39;95961.09;;;2.75;98.88
11347;BME280;5728;42.722;23.258;2022-12-18T07:28:07;95980.25;;;2.86;99.79
11347;BME280;5728;42.722;23.258;2022-12-18T07:30:36;95987.16;;;2.64;98.81
11347;BME280;5728;42.722;23.258;2022-12-18T07:33:03;95972.72;;;2.91;98.98
11347;BME280;5728;42.722;23.258;2022-12-18T07:35:32;95979.38;;;3.12;99.28
11347;BME280;5728;42.722;23.258;2022-12-18T07:37:59;95981.34;;;3.19;98.53
11347;BME280;5728;42.722;23.258;2022-12-18T07:40:26;95974.50;;;2.93;98.96
11347;BME280;5728;42.722;23.258;2022-12-18T07:42:53;95975.41;;;2.95;99.01
11347;BME280;5728;42.722;23.258;2022-12-18T07:45:21;95991.91;;;3.03;99.48
11347;BME280;5728;42.722;23.258;2022-12-18T07:47:48;95990.72;;;3.19;99.42
11347;BME280;5728;42.722;23.258;2022-12-18T07:50:15;95995.53;;;2.83;98.91
11347;BME280;5728;42.722;23.258;2022-12-18T07:52:41;95975.69;;;3.86;100.00
11347;BME280;5728;42.722;23.258;2022-12-18T07:55:08;95985.94;;;4.14;100.00
11347;BME280;5728;42.722;23.258;2022-12-18T07:57:35;95995.09;;;4.67;100.00
11347;BME280;5728;42.722;23.258;2022-12-18T08:00:03;95968.38;;;3.42;96.64
11347;BME280;5728;42.722;23.258;2022-12-18T08:02:32;96004.56;;;3.24;98.21
11347;BME280;5728;42.722;23.258;2022-12-18T08:04:59;95985.09;;;3.04;99.06
11347;BME280;5728;42.722;23.258;2022-12-18T08:07:26;96018.84;;;3.17;99.70
11347;BME280;5728;42.722;23.258;2022-12-18T08:09:53;96021.66;;;3.25;99.53
11347;BME280;5728;42.722;23.258;2022-12-18T08:12:19;96008.63;;;3.44;99.96
11347;BME280;5728;42.722;23.258;2022-12-18T08:14:46;96011.00;;;3.13;98.64
11347;BME280;5728;42.722;23.258;2022-12-18T08:17:13;96033.09;;;3.35;98.58
11347;BME280;5728;42.722;23.258;2022-12-18T08:19:42;96012.19;;;3.22;96.93
11347;BME280;5728;42.722;23.258;2022-12-18T08:22:08;96001.44;;;3.07;97.35
11347;BME280;5728;42.722;23.258;2022-12-18T08:24:35;96042.44;;;3.07;96.44
11347;BME280;5728;42.722;23.258;2022-12-18T08:27:02;96031.47;;;3.38;95.90
11347;BME280;5728;42.722;23.258;2022-12-18T08:29:29;96038.88;;;3.56;97.89
11347;BME280;5728;42.722;23.258;2022-12-18T08:31:57;96041.16;;;3.73;97.13
11347;BME280;5728;42.722;23.258;2022-12-18T08:34:24;96039.00;;;3.59;94.96
11347;BME280;5728;42.722;23.258;2022-12-18T08:36:52;96041.97;;;3.46;96.33
11347;BME280;5728;42.722;23.258;2022-12-18T08:39:18;96043.81;;;4.05;98.31
11347;BME280;5728;42.722;23.258;2022-12-18T08:41:45;96048.31;;;5.04;98.65
11347;BME280;5728;42.722;23.258;2022-12-18T08:44:32;96036.75;;;4.56;93.55
11347;BME280;5728;42.722;23.258;2022-12-18T08:47:05;96043.53;;;4.85;93.30
11347;BME280;5728;42.722;23.258;2022-12-18T08:49:32;96057.78;;;5.06;90.40
11347;BME280;5728;42.722;23.258;2022-12-18T08:52:00;96068.97;;;3.88;89.12
11347;BME280;5728;42.722;23.258;2022-12-18T08:54:28;96049.38;;;3.90;90.24
11347;BME280;5728;42.722;23.258;2022-12-18T08:56:55;96043.91;;;3.53;90.27
11347;BME280;5728;42.722;23.258;2022-12-18T08:59:22;96042.28;;;3.55;92.01
11347;BME280;5728;42.722;23.258;2022-12-18T09:01:49;96045.16;;;3.65;91.45
11347;BME280;5728;42.722;23.258;2022-12-18T09:04:17;96057.75;;;3.58;90.60
11347;BME280;5728;42.722;23.258;2022-12-18T09:06:43;96034.53;;;3.53;91.04
11347;BME280;5728;42.722;23.258;2022-12-18T09:09:12;96051.94;;;3.90;90.50
11347;BME280;5728;42.722;23.258;2022-12-18T09:11:39;96035.31;;;3.77;88.92
11347;BME280;5728;42.722;23.258;2022-12-18T09:14:06;96043.72;;;3.73;89.06
11347;BME280;5728;42.722;23.258;2022-12-18T09:16:33;96048.38;;;3.85;89.25
11347;BME280;5728;42.722;23.258;2022-12-18T09:19:01;96053.19;;;3.76;89.19
11347;BME280;5728;42.722;23.258;2022-12-18T09:21:30;96068.59;;;3.76;88.82
11347;BME280;5728;42.722;23.258;2022-12-18T09:23:57;96085.63;;;3.74;87.93
11347;BME280;5728;42.722;23.258;2022-12-18T09:26:26;96051.81;;;3.59;87.98
11347;BME280;5728;42.722;23.258;2022-12-18T09:28:54;96051.00;;;3.88;89.29
11347;BME280;5728;42.722;23.258;2022-12-18T09:31:22;96060.25;;;3.83;89.22
11347;BME280;5728;42.722;23.258;2022-12-18T09:33:49;96052.66;;;3.86;88.75
11347;BME280;5728;42.722;23.258;2022-12-18T09:36:17;96054.88;;;3.75;89.31
11347;BME280;5728;42.722;23.258;2022-12-18T09:38:44;96052.41;;;4.05;88.61
11347;BME280;5728;42.722;23.258;2022-12-18T09:41:22;96053.34;;;4.09;88.95
11347;BME280;5728;42.722;23.258;2022-12-18T09:43:57;96049.00;;;4.06;87.16
11347;BME280;5728;42.722;23.258;2022-12-18T09:46:28;96056.38;;;3.96;86.21
11347;BME280;5728;42.722;23.258;2022-12-18T09:48:59;96057.69;;;4.11;86.65
11347;BME280;5728;42.722;23.258;2022-12-18T09:51:29;96057.88;;;4.47;87.77
11347;BME280;5728;42.722;23.258;2022-12-18T09:54:03;96052.88;;;4.22;85.28
11347;BME280;5728;42.722;23.258;2022-12-18T09:56:35;96049.84;;;4.05;85.75
11347;BME280;5728;42.722;23.258;2022-12-18T09:59:05;96058.59;;;4.13;86.00
11347;BME280;5728;42.722;23.258;2022-12-18T10:01:33;96040.38;;;4.04;84.71
11347;BME280;5728;42.722;23.258;2022-12-18T10:04:00;96040.28;;;4.01;85.40
11347;BME280;5728;42.722;23.258;2022-12-18T10:06:32;96033.94;;;4.18;88.12
11347;BME280;5728;42.722;23.258;2022-12-18T10:09:05;96042.19;;;4.08;86.94
11347;BME280;5728;42.722;23.258;2022-12-18T10:11:42;96041.56;;;4.15;87.97
11347;BME280;5728;42.722;23.258;2022-12-18T10:14:18;96047.34;;;4.08;86.77
11347;BME280;5728;42.722;23.258;2022-12-18T10:16:54;96046.88;;;4.21;86.50
11347;BME280;5728;42.722;23.258;2022-12-18T10:19:34;96033.88;;;4.15;84.61
11347;BME280;5728;42.722;23.258;2022-12-18T10:22:11;96054.75;;;4.27;85.04
11347;BME280;5728;42.722;23.258;2022-12-18T10:24:45;96051.31;;;4.27;84.63
11347;BME280;5728;42.722;23.258;2022-12-18T10:27:21;96050.06;;;4.13;85.03
11347;BME280;5728;42.722;23.258;2022-12-18T10:29:53;96075.44;;;4.04;85.09
11347;BME280;5728;42.722;23.258;2022-12-18T10:32:22;96057.81;;;4.16;85.00
11347;BME280;5728;42.722;23.258;2022-12-18T10:34:52;96042.63;;;4.22;85.21
11347;BME280;5728;42.722;23.258;2022-12-18T10:37:23;96049.28;;;4.15;84.71
11347;BME280;5728;42.722;23.258;2022-12-18T10:40:07;96042.16;;;4.07;84.80
11347;BME280;5728;42.722;23.258;2022-12-18T10:42:35;96043.25;;;4.44;85.77
11347;BME280;5728;42.722;23.258;2022-12-18T10:45:08;96050.97;;;4.44;83.79
11347;BME280;5728;42.722;23.258;2022-12-18T10:47:36;96039.03;;;4.46;83.49
11347;BME280;5728;42.722;23.258;2022-12-18T10:50:19;96049.31;;;4.46;83.17
11347;BME280;5728;42.722;23.258;2022-12-18T10:52:54;96048.47;;;4.77;83.19
11347;BME280;5728;42.722;23.258;2022-12-18T10:55:21;96050.63;;;4.64;80.88
11347;BME280;5728;42.722;23.258;2022-12-18T10:57:49;96049.94;;;4.38;80.39
11347;BME280;5728;42.722;23.258;2022-12-18T11:00:26;96058.91;;;4.24;81.46
11347;BME280;5728;42.722;23.258;2022-12-18T11:02:54;96043.09;;;4.38;81.94
11347;BME280;5728;42.722;23.258;2022-12-18T11:05:27;96039.59;;;4.36;82.37
11347;BME280;5728;42.722;23.258;2022-12-18T11:07:54;96049.06;;;4.69;83.54
11347;BME280;5728;42.722;23.258;2022-12-18T11:10:25;96041.09;;;4.58;82.34
11347;BME280;5728;42.722;23.258;2022-12-18T11:12:54;96051.72;;;4.40;83.78
11347;BME280;5728;42.722;23.258;2022-12-18T11:15:25;96050.97;;;4.44;84.15
11347;BME280;5728;42.722;23.258;2022-12-18T11:17:53;96032.81;;;4.38;82.40
11347;BME280;5728;42.722;23.258;2022-12-18T11:20:30;96059.97;;;4.60;82.62
11347;BME280;5728;42.722;23.258;2022-12-18T11:22:59;96053.72;;;4.50;82.09
11347;BME280;5728;42.722;23.258;2022-12-18T11:25:26;96051.81;;;4.75;81.83
11347;BME280;5728;42.722;23.258;2022-12-18T11:27:55;96045.59;;;4.67;82.26
11347;BME280;5728;42.722;23.258;2022-12-18T11:30:25;96077.38;;;4.70;81.88
11347;BME280;5728;42.722;23.258;2022-12-18T11:32:56;96064.47;;;4.69;81.63
11347;BME280;5728;42.722;23.258;2022-12-18T11:35:35;96054.47;;;4.78;81.83
11347;BME280;5728;42.722;23.258;2022-12-18T11:38:10;96047.69;;;4.81;79.99
11347;BME280;5728;42.722;23.258;2022-12-18T11:40:42;96058.44;;;4.98;80.87
11347;BME280;5728;42.722;23.258;2022-12-18T11:43:14;96063.31;;;4.89;80.74
11347;BME280;5728;42.722;23.258;2022-12-18T11:45:48;96054.19;;;4.69;80.74
11347;BME280;5728;42.722;23.258;2022-12-18T11:48:19;96042.41;;;4.75;81.27
11347;BME280;5728;42.722;23.258;2022-12-18T11:50:51;96037.16;;;4.71;80.67
11347;BME280;5728;42.722;23.258;2022-12-18T11:53:18;96043.56;;;4.55;82.08
11347;BME280;5728;42.722;23.258;2022-12-18T11:55:52;96047.84;;;4.56;82.59
11347;BME280;5728;42.722;23.258;2022-12-18T11:58:38;96051.56;;;4.66;83.50
11347;BME280;5728;42.722;23.258;2022-12-18T12:01:15;96044.34;;;4.84;81.89
11347;BME280;5728;42.722;23.258;2022-12-18T12:07:06;96051.03;;;4.77;82.91
11347;BME280;5728;42.722;23.258;2022-12-18T12:09:40;96056.59;;;4.94;81.98
11347;BME280;5728;42.722;23.258;2022-12-18T12:12:23;96038.66;;;4.64;81.52
11347;BME280;5728;42.722;23.258;2022-12-18T12:15:01;96047.75;;;4.83;82.60
11347;BME280;5728;42.722;23.258;2022-12-18T12:17:37;96048.25;;;5.01;81.53
11347;BME280;5728;42.722;23.258;2022-12-18T12:20:15;96030.34;;;4.73;81.91
11347;BME280;5728;42.722;23.258;2022-12-18T12:22:49;96050.34;;;4.84;81.15
11347;BME280;5728;42.722;23.258;2022-12-18T12:25:32;96049.56;;;4.87;82.37
11347;BME280;5728;42.722;23.258;2022-12-18T12:28:09;96047.44;;;4.71;82.60
11347;BME280;5728;42.722;23.258;2022-12-18T12:30:45;96049.47;;;4.84;82.64
11347;BME280;5728;42.722;23.258;2022-12-18T12:33:24;96053.22;;;4.95;83.50
11347;BME280;5728;42.722;23.258;2022-12-18T12:36:02;96065.38;;;5.02;82.70
11347;BME280;5728;42.722;23.258;2022-12-18T12:38:34;96047.19;;;4.94;83.66
11347;BME280;5728;42.722;23.258;2022-12-18T12:41:04;96059.75;;;5.15;84.36
11347;BME280;5728;42.722;23.258;2022-12-18T12:43:54;96056.34;;;4.83;82.22
11347;BME280;5728;42.722;23.258;2022-12-18T12:46:21;96051.19;;;4.83;82.69
11347;BME280;5728;42.722;23.258;2022-12-18T12:48:53;96060.50;;;4.78;83.00
11347;BME280;5728;42.722;23.258;2022-12-18T12:51:24;96068.72;;;4.67;82.93
11347;BME280;5728;42.722;23.258;2022-12-18T12:53:51;96061.59;;;4.88;83.27
11347;BME280;5728;42.722;23.258;2022-12-18T12:56:21;96060.66;;;4.55;81.80
11347;BME280;5728;42.722;23.258;2022-12-18T12:58:59;96071.13;;;4.61;83.00
11347;BME280;5728;42.722;23.258;2022-12-18T13:01:34;96066.16;;;4.37;83.41
11347;BME280;5728;42.722;23.258;2022-12-18T13:04:12;96078.53;;;4.50;84.05
11347;BME280;5728;42.722;23.258;2022-12-18T13:06:47;96073.63;;;4.59;84.72
11347;BME280;5728;42.722;23.258;2022-12-18T13:09:16;96088.09;;;4.56;83.96
11347;BME280;5728;42.722;23.258;2022-12-18T13:11:44;96071.69;;;4.50;83.51
11347;BME280;5728;42.722;23.258;2022-12-18T13:14:30;96076.78;;;4.49;83.39
11347;BME280;5728;42.722;23.258;2022-12-18T13:17:29;96090.47;;;4.79;83.95
11347;BME280;5728;42.722;23.258;2022-12-18T13:20:08;96098.97;;;4.47;84.18
11347;BME280;5728;42.722;23.258;2022-12-18T13:22:37;96094.63;;;4.74;83.30